createdAt,value
2018-05-29T00:01:36.338Z,15.43
2018-05-29T00:04:04.045Z,15.90
2018-05-29T00:06:31.677Z,15.10
2018-05-29T00:08:59.370Z,16.20
2018-05-29T00:11:26.977Z,17.50
2018-05-29T00:13:54.624Z,17.70
2018-05-29T00:16:22.216Z,16.93
2018-05-29T00:18:49.879Z,16.87
2018-05-29T00:21:17.545Z,17.17
2018-05-29T00:23:45.204Z,18.50
2018-05-29T00:26:12.812Z,16.70
2018-05-29T00:28:40.509Z,16.40
2018-05-29T00:31:08.129Z,16.50
2018-05-29T00:33:35.753Z,16.57
2018-05-29T00:36:03.352Z,15.53
2018-05-29T00:38:31.045Z,17.17
2018-05-29T00:40:58.873Z,16.40
2018-05-29T00:43:26.527Z,17.83
2018-05-29T00:45:54.124Z,17.03
2018-05-29T00:48:21.738Z,16.17
2018-05-29T00:50:49.417Z,16.87
2018-05-29T00:53:17.018Z,16.40
2018-05-29T00:55:44.677Z,17.83
2018-05-29T00:58:12.280Z,18.00
2018-05-29T01:00:39.928Z,17.43
2018-05-29T01:03:07.529Z,18.63
2018-05-29T01:05:35.177Z,18.87
2018-05-29T01:08:02.790Z,18.53
2018-05-29T01:10:30.425Z,19.60
2018-05-29T01:12:58.049Z,18.90
2018-05-29T01:15:25.688Z,18.50
2018-05-29T01:17:53.284Z,18.20
2018-05-29T01:20:20.911Z,18.03
2018-05-29T01:22:48.508Z,19.70
2018-05-29T01:25:16.145Z,20.83
2018-05-29T01:27:43.741Z,17.10
2018-05-29T01:30:11.393Z,18.47
2018-05-29T01:32:39.008Z,18.97
2018-05-29T01:35:06.632Z,18.43
2018-05-29T01:37:34.284Z,18.50
2018-05-29T01:40:01.881Z,18.40
2018-05-29T01:42:29.512Z,19.63
2018-05-29T01:44:57.119Z,19.50
2018-05-29T01:47:24.772Z,18.93
2018-05-29T01:49:52.362Z,18.77
2018-05-29T01:52:20.007Z,19.17
2018-05-29T01:54:47.604Z,18.10
2018-05-29T01:57:15.236Z,18.77
2018-05-29T01:59:42.841Z,18.70
2018-05-29T02:02:10.596Z,18.73
2018-05-29T02:04:38.257Z,17.53
2018-05-29T02:07:05.840Z,19.07
2018-05-29T02:09:33.429Z,18.17
2018-05-29T02:12:01.057Z,19.63
2018-05-29T02:14:28.668Z,19.03
2018-05-29T02:16:56.329Z,17.30
2018-05-29T02:19:23.940Z,18.00
2018-05-29T02:21:51.601Z,18.87
2018-05-29T02:24:19.216Z,18.07
2018-05-29T02:26:46.813Z,19.17
2018-05-29T02:29:14.458Z,19.60
2018-05-29T02:31:42.093Z,17.53
2018-05-29T02:34:09.747Z,17.77
2018-05-29T02:36:37.352Z,17.60
2018-05-29T02:39:04.982Z,19.57
2018-05-29T02:41:32.584Z,19.53
2018-05-29T02:44:00.236Z,18.00
2018-05-29T02:46:27.854Z,20.03
2018-05-29T02:48:55.492Z,20.10
2018-05-29T02:51:23.097Z,20.57
2018-05-29T02:53:50.736Z,20.40
2018-05-29T02:56:18.493Z,24.27
2018-05-29T02:58:46.132Z,20.80
2018-05-29T03:01:13.742Z,22.10
2018-05-29T03:03:41.388Z,22.00
2018-05-29T03:06:09.025Z,22.60
2018-05-29T03:08:36.661Z,20.10
2018-05-29T03:11:04.269Z,23.43
2018-05-29T03:13:31.868Z,22.90
2018-05-29T03:15:59.508Z,22.50
2018-05-29T03:18:27.110Z,25.33
2018-05-29T03:20:54.789Z,23.87
2018-05-29T03:23:22.421Z,21.50
2018-05-29T03:25:50.061Z,24.50
2018-05-29T03:28:17.678Z,22.93
2018-05-29T03:30:45.329Z,24.67
2018-05-29T03:33:12.921Z,23.50
2018-05-29T03:35:40.560Z,23.27
2018-05-29T03:38:08.191Z,25.73
2018-05-29T03:40:35.828Z,25.40
2018-05-29T03:43:03.658Z,24.20
2018-05-29T03:45:31.326Z,24.20
2018-05-29T03:47:58.924Z,25.10
2018-05-29T03:50:26.567Z,25.80
2018-05-29T03:52:54.185Z,24.17
2018-05-29T03:55:21.900Z,26.03
2018-05-29T03:57:49.498Z,24.90
2018-05-29T04:00:17.190Z,25.40
2018-05-29T04:02:44.800Z,26.57
2018-05-29T04:05:12.456Z,30.47
2018-05-29T04:07:40.056Z,27.70
2018-05-29T04:10:07.656Z,25.50
2018-05-29T04:12:35.337Z,24.80
2018-05-29T04:15:02.933Z,26.43
2018-05-29T04:17:30.593Z,26.07
2018-05-29T04:19:58.225Z,24.67
2018-05-29T04:22:25.889Z,24.63
2018-05-29T04:24:53.540Z,25.20
2018-05-29T04:27:21.176Z,23.80
2018-05-29T04:29:48.792Z,23.47
2018-05-29T04:32:16.529Z,25.00
2018-05-29T04:34:44.151Z,26.10
2018-05-29T04:37:11.797Z,23.30
2018-05-29T04:39:39.436Z,39.77
2018-05-29T04:42:07.073Z,41.50
2018-05-29T04:44:34.824Z,28.70
2018-05-29T04:47:02.474Z,25.50
2018-05-29T04:49:30.096Z,23.77
2018-05-29T04:51:57.751Z,25.40
2018-05-29T04:54:25.366Z,23.47
2018-05-29T04:56:53.153Z,23.20
2018-05-29T04:59:20.761Z,25.60
2018-05-29T05:01:48.388Z,25.70
2018-05-29T05:04:16.002Z,23.97
2018-05-29T05:06:43.624Z,24.53
2018-05-29T05:09:11.275Z,27.43
2018-05-29T05:11:38.877Z,27.30
2018-05-29T05:14:06.583Z,26.70
2018-05-29T05:16:34.189Z,28.77
2018-05-29T05:19:01.826Z,27.37
2018-05-29T05:21:29.439Z,26.00
2018-05-29T05:23:57.145Z,26.23
2018-05-29T05:26:24.756Z,28.90
2018-05-29T05:28:52.464Z,25.90
2018-05-29T05:31:20.087Z,28.57
2018-05-29T05:33:47.725Z,31.30
2018-05-29T05:36:15.340Z,28.73
2018-05-29T05:38:43.185Z,24.87
2018-05-29T05:41:10.816Z,29.80
2018-05-29T05:43:38.453Z,28.10
2018-05-29T05:46:06.095Z,30.07
2018-05-29T05:48:33.686Z,29.97
2018-05-29T05:51:01.346Z,28.60
2018-05-29T05:53:28.955Z,31.87
2018-05-29T05:55:56.598Z,29.43
2018-05-29T05:58:24.230Z,27.83
2018-05-29T06:00:51.837Z,27.30
2018-05-29T06:03:19.573Z,26.37
2018-05-29T06:05:47.201Z,25.33
2018-05-29T06:08:14.875Z,24.90
2018-05-29T06:10:42.524Z,26.03
2018-05-29T06:13:10.121Z,26.20
2018-05-29T06:15:37.720Z,26.37
2018-05-29T06:18:05.518Z,25.10
2018-05-29T06:20:33.157Z,28.03
2018-05-29T06:23:00.892Z,28.33
2018-05-29T06:25:28.487Z,25.30
2018-05-29T06:27:56.175Z,27.30
2018-05-29T06:30:23.772Z,24.40
2018-05-29T06:32:51.441Z,23.30
2018-05-29T06:35:19.015Z,23.60
2018-05-29T06:37:46.693Z,23.80
2018-05-29T06:40:14.298Z,26.30
2018-05-29T06:42:41.942Z,22.10
2018-05-29T06:45:09.588Z,21.27
2018-05-29T06:47:37.289Z,22.10
2018-05-29T06:50:06.605Z,22.83
2018-05-29T06:52:34.212Z,20.37
2018-05-29T06:55:01.885Z,18.90
2018-05-29T06:57:29.448Z,20.57
2018-05-29T06:59:57.156Z,18.13
2018-05-29T07:02:24.775Z,18.50
2018-05-29T07:04:52.401Z,17.33
2018-05-29T07:07:20.040Z,17.57
2018-05-29T07:09:47.690Z,16.57
2018-05-29T07:12:15.301Z,17.03
2018-05-29T07:14:42.941Z,15.30
2018-05-29T07:17:10.594Z,17.13
2018-05-29T07:19:38.241Z,14.93
2018-05-29T07:22:06.064Z,15.97
2018-05-29T07:24:33.705Z,14.70
2018-05-29T07:27:01.430Z,14.60
2018-05-29T07:29:29.063Z,13.67
2018-05-29T07:31:56.661Z,13.87
2018-05-29T07:34:24.312Z,13.83
2018-05-29T07:36:51.920Z,13.80
2018-05-29T07:39:19.514Z,12.97
2018-05-29T07:41:47.188Z,13.00
2018-05-29T07:44:14.873Z,13.87
2018-05-29T07:46:42.544Z,15.00
2018-05-29T07:49:10.167Z,16.70
2018-05-29T07:51:38.035Z,14.60
2018-05-29T07:54:05.649Z,15.60
2018-05-29T07:56:33.302Z,14.97
2018-05-29T07:59:00.911Z,16.80
2018-05-29T08:01:28.636Z,16.23
2018-05-29T08:03:56.271Z,17.50
2018-05-29T08:06:23.889Z,15.47
2018-05-29T08:08:51.481Z,16.00
2018-05-29T08:11:19.117Z,16.00
2018-05-29T08:13:46.733Z,13.63
2018-05-29T08:16:14.376Z,12.53
2018-05-29T08:18:41.976Z,11.43
2018-05-29T08:21:09.622Z,12.60
2018-05-29T08:23:37.228Z,13.50
2018-05-29T08:26:04.865Z,14.47
2018-05-29T08:28:32.479Z,14.67
2018-05-29T08:31:00.142Z,14.63
2018-05-29T08:33:27.732Z,14.17
2018-05-29T08:35:55.432Z,14.27
2018-05-29T08:38:23.073Z,14.50
2018-05-29T08:40:50.672Z,13.03
2018-05-29T08:43:18.304Z,13.30
2018-05-29T08:45:45.915Z,13.33
2018-05-29T08:48:13.561Z,12.53
2018-05-29T08:50:41.157Z,13.20
2018-05-29T08:53:08.818Z,13.90
2018-05-29T08:55:36.490Z,13.83
2018-05-29T08:58:04.128Z,13.57
2018-05-29T09:00:31.769Z,13.73
2018-05-29T09:02:59.402Z,13.63
2018-05-29T09:05:27.016Z,13.83
2018-05-29T09:07:54.714Z,13.57
2018-05-29T09:10:22.312Z,14.23
2018-05-29T09:12:49.941Z,13.83
2018-05-29T09:15:17.556Z,13.97
2018-05-29T09:17:45.165Z,14.40
2018-05-29T09:20:12.812Z,14.30
2018-05-29T09:22:40.513Z,14.00
2018-05-29T09:25:08.164Z,14.40
2018-05-29T09:27:35.782Z,14.37
2018-05-29T09:30:03.417Z,14.57
2018-05-29T09:32:31.029Z,14.13
2018-05-29T09:34:58.686Z,14.80
2018-05-29T09:37:26.324Z,14.80
2018-05-29T09:39:53.952Z,14.83
2018-05-29T09:42:21.555Z,15.37
2018-05-29T09:44:49.298Z,15.30
2018-05-29T09:47:16.949Z,14.20
2018-05-29T09:49:44.587Z,14.73
2018-05-29T09:52:12.190Z,16.00
2018-05-29T09:54:39.840Z,13.97
2018-05-29T09:57:07.437Z,14.10
2018-05-29T09:59:35.037Z,13.77
2018-05-29T10:02:02.689Z,14.27
2018-05-29T10:04:30.280Z,13.50
2018-05-29T10:06:57.971Z,14.17
2018-05-29T10:09:25.532Z,13.50
2018-05-29T10:11:53.184Z,13.57
2018-05-29T10:14:20.849Z,14.17
2018-05-29T10:16:48.504Z,14.50
2018-05-29T10:19:16.154Z,13.70
2018-05-29T10:21:43.805Z,14.40
2018-05-29T10:24:11.533Z,14.03
2018-05-29T10:26:39.157Z,14.60
2018-05-29T10:29:06.781Z,15.10
2018-05-29T10:31:34.424Z,14.97
2018-05-29T10:34:02.038Z,14.90
2018-05-29T10:36:29.696Z,15.53
2018-05-29T10:38:57.363Z,15.30
2018-05-29T10:41:24.992Z,15.60
2018-05-29T10:43:52.638Z,16.03
2018-05-29T10:46:20.257Z,16.13
2018-05-29T10:48:47.901Z,16.50
2018-05-29T10:51:15.501Z,15.83
2018-05-29T10:53:43.156Z,15.73
2018-05-29T10:56:10.789Z,14.23
2018-05-29T10:58:38.417Z,15.27
2018-05-29T11:01:06.123Z,15.10
2018-05-29T11:03:33.776Z,16.07
2018-05-29T11:06:01.389Z,16.77
2018-05-29T11:08:29.031Z,15.23
2018-05-29T11:10:56.716Z,15.70
2018-05-29T11:13:24.349Z,15.57
2018-05-29T11:15:51.964Z,16.17
2018-05-29T11:18:19.621Z,22.20
2018-05-29T11:20:47.230Z,16.00
2018-05-29T11:23:14.876Z,17.87
2018-05-29T11:25:42.606Z,20.37
2018-05-29T11:28:10.257Z,15.70
2018-05-29T11:30:37.876Z,15.20
2018-05-29T11:33:05.525Z,17.03
2018-05-29T11:35:33.125Z,16.27
2018-05-29T11:38:00.740Z,14.27
2018-05-29T11:40:28.382Z,16.50
2018-05-29T11:42:55.999Z,16.67
2018-05-29T11:45:23.639Z,16.87
2018-05-29T11:47:51.251Z,16.50
2018-05-29T11:50:19.009Z,16.50
2018-05-29T11:52:46.621Z,15.37
2018-05-29T11:55:14.266Z,15.20
2018-05-29T11:57:41.896Z,15.83
2018-05-29T12:00:09.541Z,16.43
2018-05-29T12:02:37.213Z,103.27
2018-05-29T12:05:04.826Z,16.17
2018-05-29T12:07:32.458Z,14.90
2018-05-29T12:10:00.063Z,15.97
2018-05-29T12:12:27.700Z,14.50
2018-05-29T12:14:55.310Z,16.40
2018-05-29T12:17:22.948Z,14.73
2018-05-29T12:19:50.566Z,15.20
2018-05-29T12:22:18.261Z,16.70
2018-05-29T12:24:45.846Z,15.73
2018-05-29T12:27:13.518Z,14.53
2018-05-29T12:29:41.190Z,15.30
2018-05-29T12:32:08.835Z,14.57
2018-05-29T12:34:36.456Z,16.30
2018-05-29T12:37:04.085Z,16.27
2018-05-29T12:39:31.750Z,15.23
2018-05-29T12:41:59.510Z,15.70
2018-05-29T12:44:27.111Z,15.27
2018-05-29T12:46:54.702Z,14.93
2018-05-29T12:49:22.342Z,17.67
2018-05-29T12:51:49.962Z,15.50
2018-05-29T12:54:17.597Z,15.47
2018-05-29T12:56:45.193Z,15.47
2018-05-29T12:59:12.955Z,16.20
2018-05-29T13:01:40.488Z,15.47
2018-05-29T13:04:08.150Z,16.37
2018-05-29T13:06:35.764Z,17.40
2018-05-29T13:09:03.400Z,16.00
2018-05-29T13:11:31.877Z,15.20
2018-05-29T13:13:59.559Z,14.70
2018-05-29T13:16:27.176Z,14.60
2018-05-29T13:18:54.776Z,15.20
2018-05-29T13:21:22.425Z,15.40
2018-05-29T13:23:50.072Z,15.67
2018-05-29T13:26:17.736Z,14.30
2018-05-29T13:28:45.904Z,13.77
2018-05-29T13:31:13.691Z,13.50
2018-05-29T13:33:41.396Z,12.47
2018-05-29T13:36:09.226Z,15.90
2018-05-29T13:38:36.845Z,15.70
2018-05-29T13:41:04.569Z,14.20
2018-05-29T13:43:32.277Z,14.13
2018-05-29T13:45:59.984Z,13.03
2018-05-29T13:48:27.684Z,12.03
2018-05-29T13:50:55.425Z,12.23
2018-05-29T13:53:23.029Z,12.80
2018-05-29T13:55:50.715Z,11.60
2018-05-29T13:58:18.314Z,11.80
2018-05-29T14:00:45.949Z,11.37
2018-05-29T14:03:13.600Z,13.50
2018-05-29T14:05:41.326Z,14.67
2018-05-29T14:08:08.976Z,13.00
2018-05-29T14:10:36.594Z,13.73
2018-05-29T14:13:04.308Z,16.63
2018-05-29T14:15:31.937Z,16.43
2018-05-29T14:17:59.631Z,11.70
2018-05-29T14:20:27.228Z,8.13
2018-05-29T14:22:55.504Z,7.40
2018-05-29T14:25:23.178Z,6.83
2018-05-29T14:27:50.931Z,6.60
2018-05-29T14:30:18.534Z,7.63
2018-05-29T14:32:46.201Z,6.43
2018-05-29T14:35:13.819Z,5.97
2018-05-29T14:37:41.420Z,6.50
2018-05-29T14:40:09.118Z,6.30
2018-05-29T14:42:36.736Z,6.60
2018-05-29T14:45:04.366Z,6.83
2018-05-29T14:47:32.856Z,6.83
2018-05-29T14:50:00.510Z,6.50
2018-05-29T14:52:28.119Z,6.50
2018-05-29T14:54:55.745Z,7.43
2018-05-29T14:57:23.363Z,6.80
2018-05-29T14:59:51.077Z,8.77
2018-05-29T15:02:18.697Z,8.87
2018-05-29T15:04:46.345Z,9.77
2018-05-29T15:07:13.960Z,12.90
2018-05-29T15:09:41.616Z,10.57
2018-05-29T15:12:09.277Z,11.77
2018-05-29T15:14:36.934Z,10.57
2018-05-29T15:17:04.545Z,10.97
2018-05-29T15:19:32.209Z,10.07
2018-05-29T15:21:59.801Z,8.33
2018-05-29T15:24:27.429Z,8.97
2018-05-29T15:26:55.080Z,8.37
2018-05-29T15:29:22.687Z,9.57
2018-05-29T15:31:50.341Z,10.43
2018-05-29T15:34:17.940Z,9.53
2018-05-29T15:36:45.588Z,9.47
2018-05-29T15:39:13.460Z,10.23
2018-05-29T15:41:41.107Z,10.60
2018-05-29T15:44:08.740Z,10.00
2018-05-29T15:46:36.447Z,16.80
2018-05-29T15:49:04.066Z,40.60
2018-05-29T15:51:31.721Z,10.00
2018-05-29T15:53:59.345Z,9.93
2018-05-29T15:56:27.077Z,8.13
2018-05-29T15:58:54.677Z,8.00
2018-05-29T16:01:22.288Z,6.97
2018-05-29T16:03:49.938Z,7.33
2018-05-29T16:06:17.562Z,7.90
2018-05-29T16:08:45.345Z,8.20
2018-05-29T16:11:12.962Z,8.23
2018-05-29T16:13:40.600Z,6.57
2018-05-29T16:16:08.297Z,6.97
2018-05-29T16:18:36.011Z,7.60
2018-05-29T16:21:03.654Z,7.70
2018-05-29T16:23:31.548Z,7.27
2018-05-29T16:25:59.212Z,7.87
2018-05-29T16:28:26.843Z,7.90
2018-05-29T16:30:54.441Z,8.37
2018-05-29T16:33:22.095Z,9.00
2018-05-29T16:35:49.733Z,8.70
2018-05-29T16:38:17.444Z,8.60
2018-05-29T16:40:45.102Z,8.23
2018-05-29T16:43:12.650Z,8.70
2018-05-29T16:45:40.314Z,9.07
2018-05-29T16:48:07.948Z,10.07
2018-05-29T16:50:35.802Z,8.40
2018-05-29T16:53:03.387Z,8.90
2018-05-29T16:55:31.033Z,9.33
2018-05-29T16:57:58.638Z,10.20
2018-05-29T17:00:26.293Z,10.00
2018-05-29T17:02:53.904Z,11.90
2018-05-29T17:05:21.609Z,12.50
2018-05-29T17:07:49.247Z,19.20
2018-05-29T17:10:16.892Z,23.43
2018-05-29T17:12:44.525Z,13.63
2018-05-29T17:15:12.342Z,12.93
2018-05-29T17:17:39.970Z,14.23
2018-05-29T17:20:07.661Z,14.50
2018-05-29T17:22:35.352Z,13.63
2018-05-29T17:25:02.925Z,13.60
2018-05-29T17:27:30.592Z,13.63
2018-05-29T17:29:58.204Z,15.80
2018-05-29T17:32:25.847Z,14.17
2018-05-29T17:34:53.483Z,15.03
2018-05-29T17:37:21.149Z,14.53
2018-05-29T17:39:48.781Z,16.57
2018-05-29T17:42:16.470Z,17.13
2018-05-29T17:44:44.087Z,20.10
2018-05-29T17:47:11.833Z,14.83
2018-05-29T17:49:39.636Z,15.20
2018-05-29T17:52:07.318Z,13.60
2018-05-29T17:54:35.164Z,14.43
2018-05-29T17:57:02.867Z,14.87
2018-05-29T17:59:30.485Z,15.20
2018-05-29T18:01:58.129Z,13.50
2018-05-29T18:04:25.921Z,15.40
2018-05-29T18:06:53.604Z,15.90
2018-05-29T18:09:21.217Z,14.37
2018-05-29T18:11:48.879Z,13.10
2018-05-29T18:14:16.641Z,15.00
2018-05-29T18:16:44.287Z,13.30
2018-05-29T18:19:11.956Z,14.10
2018-05-29T18:21:39.753Z,14.00
2018-05-29T18:24:07.429Z,15.03
2018-05-29T18:26:35.172Z,13.93
2018-05-29T18:29:02.875Z,14.30
2018-05-29T18:31:30.510Z,15.30
2018-05-29T18:33:58.148Z,13.20
2018-05-29T18:36:25.744Z,14.13
2018-05-29T18:38:53.440Z,13.40
2018-05-29T18:41:21.081Z,12.97
2018-05-29T18:43:48.746Z,13.30
2018-05-29T18:46:16.374Z,12.03
2018-05-29T18:48:44.127Z,13.37
2018-05-29T18:51:11.780Z,11.63
2018-05-29T18:53:39.428Z,12.13
2018-05-29T18:56:07.078Z,12.27
2018-05-29T18:58:34.913Z,12.13
2018-05-29T19:01:03.621Z,22.40
2018-05-29T19:03:31.305Z,12.70
2018-05-29T19:05:59.028Z,13.30
2018-05-29T19:08:26.635Z,12.93
2018-05-29T19:10:54.289Z,13.70
2018-05-29T19:13:22.158Z,13.30
2018-05-29T19:15:49.959Z,12.60
2018-05-29T19:18:17.564Z,13.10
2018-05-29T19:20:45.233Z,13.70
2018-05-29T19:23:12.944Z,13.70
2018-05-29T19:25:40.530Z,14.80
2018-05-29T19:28:08.237Z,16.00
2018-05-29T19:30:35.875Z,13.80
2018-05-29T19:33:03.493Z,11.83
2018-05-29T19:35:31.266Z,11.70
2018-05-29T19:37:58.873Z,11.77
2018-05-29T19:40:26.524Z,10.87
2018-05-29T19:42:54.141Z,10.17
2018-05-29T19:45:21.782Z,9.33
2018-05-29T19:47:49.536Z,10.73
2018-05-29T19:50:17.148Z,9.20
2018-05-29T19:52:44.788Z,7.93
2018-05-29T19:55:11.729Z,9.77
2018-05-29T19:57:39.400Z,10.50
2018-05-29T20:00:07.014Z,18.53
2018-05-29T20:02:34.664Z,10.10
2018-05-29T20:05:02.281Z,9.50
2018-05-29T20:07:29.917Z,8.70
2018-05-29T20:09:57.560Z,8.20
2018-05-29T20:12:25.205Z,8.97
2018-05-29T20:14:52.892Z,9.93
2018-05-29T20:17:31.453Z,8.53
2018-05-29T20:19:59.059Z,8.90
2018-05-29T20:22:26.698Z,7.60
2018-05-29T20:24:54.320Z,8.03
2018-05-29T20:27:21.933Z,8.07
2018-05-29T20:29:49.740Z,7.50
2018-05-29T20:32:17.338Z,8.60
2018-05-29T20:34:44.984Z,7.30
2018-05-29T20:37:12.653Z,7.20
2018-05-29T20:39:40.293Z,8.10
2018-05-29T20:42:07.909Z,8.70
2018-05-29T20:44:35.558Z,7.80
2018-05-29T20:47:03.204Z,6.77
2018-05-29T20:49:30.837Z,8.77
2018-05-29T20:51:58.437Z,7.87
2018-05-29T20:54:26.124Z,7.30
2018-05-29T20:56:53.715Z,8.67
2018-05-29T20:59:21.422Z,6.50
2018-05-29T21:01:49.023Z,6.60
2018-05-29T21:04:16.658Z,6.20
2018-05-29T21:06:44.246Z,6.50
2018-05-29T21:09:11.906Z,7.07
2018-05-29T21:11:39.505Z,6.53
2018-05-29T21:14:07.133Z,5.80
2018-05-29T21:16:34.805Z,5.40
2018-05-29T21:19:02.412Z,5.60
2018-05-29T21:21:30.044Z,6.60
2018-05-29T21:23:57.657Z,6.27
2018-05-29T21:26:25.316Z,7.37
2018-05-29T21:28:52.958Z,6.30
2018-05-29T21:31:20.661Z,6.30
2018-05-29T21:33:48.279Z,6.27
2018-05-29T21:36:15.904Z,6.67
2018-05-29T21:38:43.576Z,7.70
2018-05-29T21:41:11.381Z,6.60
2018-05-29T21:43:38.980Z,6.50
2018-05-29T21:46:06.618Z,6.97
2018-05-29T21:48:34.233Z,8.00
2018-05-29T21:51:01.829Z,7.60
2018-05-29T21:53:29.577Z,7.47
2018-05-29T21:55:57.202Z,6.50
2018-05-29T21:58:24.832Z,7.07
2018-05-29T22:00:52.448Z,6.00
2018-05-29T22:03:20.097Z,6.30
2018-05-29T22:05:47.700Z,6.60
2018-05-29T22:08:15.332Z,6.33
2018-05-29T22:10:42.931Z,6.50
2018-05-29T22:13:10.617Z,6.03
2018-05-29T22:15:38.242Z,6.77
2018-05-29T22:18:05.853Z,5.83
2018-05-29T22:20:33.504Z,6.50
2018-05-29T22:23:01.141Z,6.40
2018-05-29T22:25:28.929Z,7.73
2018-05-29T22:27:56.542Z,7.00
2018-05-29T22:30:24.249Z,7.40
2018-05-29T22:32:51.821Z,7.80
2018-05-29T22:35:19.453Z,7.70
2018-05-29T22:37:47.077Z,6.60
2018-05-29T22:40:14.696Z,7.70
2018-05-29T22:42:42.290Z,6.40
2018-05-29T22:45:10.126Z,6.40
2018-05-29T22:47:37.736Z,6.27
2018-05-29T22:50:05.365Z,8.00
2018-05-29T22:52:32.953Z,6.63
2018-05-29T22:55:00.585Z,6.80
2018-05-29T22:57:28.200Z,6.37
2018-05-29T22:59:55.823Z,6.20
2018-05-29T23:02:23.429Z,7.00
2018-05-29T23:04:51.080Z,6.77
2018-05-29T23:07:18.696Z,7.30
2018-05-29T23:09:46.292Z,6.67
2018-05-29T23:12:14.001Z,6.13
2018-05-29T23:14:41.764Z,6.67
2018-05-29T23:17:09.601Z,7.47
2018-05-29T23:19:37.224Z,5.80
2018-05-29T23:22:04.868Z,7.20
2018-05-29T23:24:32.459Z,7.00
2018-05-29T23:27:00.133Z,6.37
2018-05-29T23:29:27.723Z,7.30
2018-05-29T23:31:55.353Z,6.97
2018-05-29T23:34:22.957Z,7.50
2018-05-29T23:36:50.608Z,7.47
2018-05-29T23:39:18.227Z,6.27
2018-05-29T23:41:45.896Z,5.97
2018-05-29T23:44:13.496Z,6.57
2018-05-29T23:46:41.133Z,7.27
2018-05-29T23:49:08.733Z,5.17
2018-05-29T23:51:36.374Z,5.30
2018-05-29T23:54:03.993Z,5.10
2018-05-29T23:56:31.593Z,6.13
2018-05-29T23:58:59.232Z,5.90
